Time;durP1;ratioP1;P1;durP2;ratioP2;P2;SDS_P1;SDS_P2;PMS_P1;PMS_P2;Temp;Humidity;BMP_temperature;BMP_pressure;BME280_temperature;BME280_humidity;BME280_pressure;Samples;Min_cycle;Max_cycle;Signal;HPM_P1;HPM_P2
2022/08/08 00:02:42;;;;;;;2.88;1.25;;;;;;;;;;4875073;29;20060;-74
2022/08/08 00:05:15;;;;;;;2.42;1.10;;;;;;;;;;4866698;29;20050;-72
2022/08/08 00:08:13;;;;;;;1.35;1.02;;;;;;;;;;4863587;29;20045;-71
2022/08/08 00:10:49;;;;;;;1.58;0.95;;;;;;;;;;4863316;29;20052;-72
2022/08/08 00:13:31;;;;;;;1.88;1.08;;;;;;;;;;4865390;29;20056;-73
2022/08/08 00:16:45;;;;;;;1.23;0.90;;;;;;;;;;4874715;29;20053;-73
2022/08/08 00:19:22;;;;;;;1.48;0.70;;;;;;;;;;4875080;29;20057;-74
2022/08/08 00:22:01;;;;;;;1.88;0.80;;;;;;;;;;4874778;29;20064;-73
2022/08/08 00:24:54;;;;;;;3.03;1.00;;;;;;;;;;4874502;29;20532;-73
2022/08/08 00:27:27;;;;;;;2.60;0.70;;;;;;;;;;4875088;29;20056;-71
2022/08/08 00:30:11;;;;;;;1.25;0.70;;;;;;;;;;4874958;29;20044;-73
2022/08/08 00:33:00;;;;;;;0.95;0.63;;;;;;;;;;4874486;29;20078;-74
2022/08/08 00:36:05;;;;;;;1.58;0.40;;;;;;;;;;4872628;29;20057;-73
2022/08/08 00:39:10;;;;;;;0.80;0.60;;;;;;;;;;4862008;29;20449;-73
2022/08/08 00:42:39;;;;;;;1.27;0.75;;;;;;;;;;4874752;29;20829;-73
2022/08/08 00:45:47;;;;;;;0.50;0.50;;;;;;;;;;4875180;29;20052;-73
2022/08/08 00:48:36;;;;;;;0.85;0.55;;;;;;;;;;4874707;29;20053;-72
2022/08/08 00:51:22;;;;;;;0.52;0.43;;;;;;;;;;4874443;29;20485;-71
2022/08/08 00:54:43;;;;;;;1.10;0.80;;;;;;;;;;4872865;29;20060;-73
2022/08/08 00:57:40;;;;;;;0.40;0.32;;;;;;;;;;4874226;29;20412;-77
2022/08/08 01:00:21;;;;;;;1.02;0.60;;;;;;;;;;4868769;29;20084;-74
2022/08/08 01:02:57;;;;;;;;;;;;;;;;;;4861881;29;20054;-74
2022/08/08 01:06:17;;;;;;;0.50;0.50;;;;;;;;;;4887539;29;19930;-74
2022/08/08 01:09:25;;;;;;;2.15;0.60;;;;;;;;;;4859749;29;20638;-74
2022/08/08 01:12:16;;;;;;;1.20;0.60;;;;;;;;;;4872961;29;20060;-74
2022/08/08 01:15:32;;;;;;;0.88;0.60;;;;;;;;;;4873225;29;20080;-75
2022/08/08 01:18:35;;;;;;;1.02;0.70;;;;;;;;;;4872015;29;20056;-74
2022/08/08 01:21:52;;;;;;;0.60;0.35;;;;;;;;;;4872850;29;20064;-75
2022/08/08 01:24:43;;;;;;;0.90;0.43;;;;;;;;;;4872128;29;20048;-71
2022/08/08 01:27:24;;;;;;;1.23;0.50;;;;;;;;;;4872534;29;20064;-71
2022/08/08 01:30:32;;;;;;;1.42;0.65;;;;;;;;;;4871951;29;20053;-71
2022/08/08 01:33:39;;;;;;;0.30;0.30;;;;;;;;;;4857732;29;20064;-73
2022/08/08 01:36:24;;;;;;;;;;;;;;;;;;4874379;29;20049;-73
2022/08/08 01:39:10;;;;;;;0.80;0.50;;;;;;;;;;4873339;29;19923;-73
2022/08/08 01:42:14;;;;;;;0.47;0.47;;;;;;;;;;4874045;29;20632;-73
2022/08/08 01:45:10;;;;;;;0.50;0.32;;;;;;;;;;4872199;29;20547;-74
2022/08/08 01:48:02;;;;;;;0.98;0.50;;;;;;;;;;4871463;29;20060;-72
2022/08/08 01:51:13;;;;;;;0.50;0.50;;;;;;;;;;4872069;29;20064;-74
2022/08/08 01:54:36;;;;;;;0.80;0.50;;;;;;;;;;4871399;29;20378;-73
2022/08/08 01:57:50;;;;;;;0.63;0.45;;;;;;;;;;4874007;29;20056;-73
2022/08/08 02:01:02;;;;;;;2.00;0.70;;;;;;;;;;4872417;29;20056;-74
2022/08/08 02:04:04;;;;;;;1.00;0.55;;;;;;;;;;4872019;29;20068;-73
2022/08/08 02:07:04;;;;;;;1.00;0.57;;;;;;;;;;4872135;29;20524;-72
2022/08/08 02:10:31;;;;;;;2.10;0.88;;;;;;;;;;4872187;29;20835;-73
2022/08/08 02:13:30;;;;;;;1.35;0.60;;;;;;;;;;4847988;29;20548;-72
2022/08/08 02:16:33;;;;;;;0.95;0.57;;;;;;;;;;4873099;29;20053;-73
2022/08/08 02:19:18;;;;;;;0.80;0.40;;;;;;;;;;4873087;29;20051;-73
2022/08/08 02:22:33;;;;;;;0.40;0.40;;;;;;;;;;4872344;29;20529;-73
2022/08/08 02:25:28;;;;;;;0.80;0.50;;;;;;;;;;4871303;29;20874;-72
2022/08/08 02:28:58;;;;;;;1.75;0.60;;;;;;;;;;4871740;29;20061;-73
2022/08/08 02:32:18;;;;;;;0.55;0.50;;;;;;;;;;4875396;29;20053;-74
2022/08/08 02:35:02;;;;;;;1.00;0.40;;;;;;;;;;4845700;29;20061;-74
2022/08/08 02:38:20;;;;;;;0.40;0.40;;;;;;;;;;4874575;29;20388;-73
2022/08/08 02:41:16;;;;;;;0.98;0.50;;;;;;;;;;4872881;29;20433;-72
2022/08/08 02:44:31;;;;;;;1.55;0.60;;;;;;;;;;4875037;29;20053;-73
2022/08/08 02:48:01;;;;;;;0.73;0.40;;;;;;;;;;4875483;29;20067;-74
2022/08/08 02:51:14;;;;;;;0.40;0.25;;;;;;;;;;4875361;29;20417;-73
2022/08/08 02:54:12;;;;;;;0.32;0.32;;;;;;;;;;4875566;29;20060;-73
2022/08/08 02:57:00;;;;;;;0.35;0.22;;;;;;;;;;4874562;29;20064;-73
2022/08/08 03:00:06;;;;;;;0.30;0.30;;;;;;;;;;4875629;29;20155;-74
2022/08/08 03:03:42;;;;;;;0.88;0.35;;;;;;;;;;4875150;29;20061;-74
2022/08/08 03:07:03;;;;;;;0.98;0.40;;;;;;;;;;4875264;29;20060;-73
2022/08/08 03:10:05;;;;;;;1.95;0.45;;;;;;;;;;4874430;29;20049;-72
2022/08/08 03:13:15;;;;;;;1.45;0.30;;;;;;;;;;4876335;29;20064;-73
2022/08/08 03:16:20;;;;;;;0.20;0.20;;;;;;;;;;4876271;29;20416;-72
2022/08/08 03:19:20;;;;;;;0.30;0.30;;;;;;;;;;4874993;29;20068;-73
2022/08/08 03:21:50;;;;;;;0.10;0.10;;;;;;;;;;4874523;29;20057;-74
2022/08/08 03:24:28;;;;;;;0.13;0.13;;;;;;;;;;4875191;29;20072;-74
2022/08/08 03:27:36;;;;;;;0.73;0.13;;;;;;;;;;4874097;29;20080;-72
2022/08/08 03:30:13;;;;;;;0.10;0.10;;;;;;;;;;4855973;29;20080;-73
2022/08/08 03:36:00;;;;;;;0.10;0.10;;;;;;;;;;4876061;29;20072;-73
2022/08/08 03:38:31;;;;;;;0.10;0.10;;;;;;;;;;4874162;29;20084;-73
2022/08/08 03:41:33;;;;;;;0.10;0.10;;;;;;;;;;4874495;29;20053;-72
2022/08/08 03:44:34;;;;;;;0.10;0.10;;;;;;;;;;4875545;29;20060;-72
2022/08/08 03:47:18;;;;;;;0.13;0.13;;;;;;;;;;4874533;29;20120;-73
2022/08/08 03:49:53;;;;;;;0.00;0.00;;;;;;;;;;4873703;29;20516;-73
2022/08/08 03:52:36;;;;;;;0.32;0.10;;;;;;;;;;4874453;29;20072;-74
2022/08/08 03:55:17;;;;;;;0.03;0.03;;;;;;;;;;4874047;29;20432;-73
2022/08/08 03:58:11;;;;;;;0.30;0.10;;;;;;;;;;4874897;29;20065;-73
2022/08/08 04:01:08;;;;;;;0.00;0.00;;;;;;;;;;4874133;29;20060;-73
2022/08/08 04:03:55;;;;;;;0.60;0.10;;;;;;;;;;4861512;29;20069;-73
2022/08/08 04:06:38;;;;;;;1.27;0.10;;;;;;;;;;4873571;29;20521;-74
2022/08/08 04:09:15;;;;;;;0.68;0.10;;;;;;;;;;4875352;29;20061;-72
2022/08/08 04:11:45;;;;;;;0.75;0.10;;;;;;;;;;4873940;29;20061;-74
2022/08/08 04:14:45;;;;;;;0.52;0.13;;;;;;;;;;4874517;29;20087;-71
2022/08/08 04:17:19;;;;;;;0.98;0.17;;;;;;;;;;4874050;29;20049;-72
2022/08/08 04:20:10;;;;;;;0.38;0.00;;;;;;;;;;4875452;29;20044;-72
2022/08/08 04:22:40;;;;;;;0.68;0.00;;;;;;;;;;4872966;29;20151;-73
2022/08/08 04:25:12;;;;;;;1.10;0.17;;;;;;;;;;4873567;29;20476;-74
2022/08/08 04:27:45;;;;;;;0.05;0.05;;;;;;;;;;4873447;29;20068;-73
2022/08/08 04:30:36;;;;;;;0.15;0.08;;;;;;;;;;4873962;29;20631;-75
2022/08/08 04:33:13;;;;;;;0.10;0.10;;;;;;;;;;4873482;29;20057;-72
2022/08/08 04:35:44;;;;;;;0.00;0.00;;;;;;;;;;4874831;29;20068;-74
2022/08/08 04:38:21;;;;;;;0.00;0.00;;;;;;;;;;4873098;29;20056;-73
2022/08/08 04:40:56;;;;;;;0.00;0.00;;;;;;;;;;4873246;29;20061;-72
2022/08/08 04:43:27;;;;;;;0.00;0.00;;;;;;;;;;4873109;29;20052;-73
2022/08/08 04:46:16;;;;;;;0.10;0.10;;;;;;;;;;4873420;29;20075;-73
2022/08/08 04:48:48;;;;;;;0.00;0.00;;;;;;;;;;4873404;29;20067;-72
2022/08/08 04:51:19;;;;;;;0.05;0.00;;;;;;;;;;4873606;29;20060;-73
2022/08/08 04:54:09;;;;;;;0.00;0.00;;;;;;;;;;4872081;29;20060;-73
2022/08/08 04:56:59;;;;;;;0.73;0.20;;;;;;;;;;4873314;29;20846;-73
2022/08/08 04:59:29;;;;;;;0.00;0.00;;;;;;;;;;4872271;29;20053;-71
2022/08/08 05:02:11;;;;;;;0.00;0.00;;;;;;;;;;4873173;29;20076;-73
2022/08/08 05:04:42;;;;;;;0.10;0.10;;;;;;;;;;4874197;29;20056;-75
2022/08/08 05:07:16;;;;;;;0.00;0.00;;;;;;;;;;4874454;29;20056;-74
2022/08/08 05:09:46;;;;;;;0.00;0.00;;;;;;;;;;4871755;29;20067;-73
2022/08/08 05:12:16;;;;;;;0.30;0.03;;;;;;;;;;4873351;29;20061;-73
2022/08/08 05:14:50;;;;;;;0.00;0.00;;;;;;;;;;4872326;29;20060;-74
2022/08/08 05:17:21;;;;;;;0.00;0.00;;;;;;;;;;4873175;29;20052;-74
2022/08/08 05:19:50;;;;;;;0.10;0.03;;;;;;;;;;4872121;29;20053;-73
2022/08/08 05:22:43;;;;;;;0.08;0.08;;;;;;;;;;4872659;29;20489;-74
2022/08/08 05:25:17;;;;;;;1.13;0.10;;;;;;;;;;4872454;29;20060;-74
2022/08/08 05:27:49;;;;;;;0.00;0.00;;;;;;;;;;4873889;29;20060;-74
2022/08/08 05:30:22;;;;;;;0.17;0.17;;;;;;;;;;4872505;29;20080;-72
2022/08/08 05:32:58;;;;;;;0.00;0.00;;;;;;;;;;4872249;29;20429;-74
2022/08/08 05:35:34;;;;;;;0.43;0.03;;;;;;;;;;4872235;29;20417;-72
2022/08/08 05:38:14;;;;;;;0.57;0.10;;;;;;;;;;4872609;29;20053;-72
2022/08/08 05:41:07;;;;;;;0.22;0.10;;;;;;;;;;4872472;29;20057;-72
2022/08/08 05:43:39;;;;;;;0.10;0.10;;;;;;;;;;4872906;29;20057;-73
2022/08/08 05:46:29;;;;;;;0.32;0.03;;;;;;;;;;4873454;29;20073;-74
2022/08/08 05:49:03;;;;;;;0.25;0.05;;;;;;;;;;4872834;29;20057;-72
2022/08/08 05:51:41;;;;;;;0.28;0.20;;;;;;;;;;4871026;29;20063;-72
2022/08/08 05:54:22;;;;;;;0.43;0.10;;;;;;;;;;4872602;29;20068;-71
2022/08/08 05:57:17;;;;;;;0.82;0.10;;;;;;;;;;4872041;29;20053;-71
2022/08/08 06:00:10;;;;;;;0.90;0.13;;;;;;;;;;4872190;29;20421;-72
2022/08/08 06:03:10;;;;;;;0.00;0.00;;;;;;;;;;4871626;29;20668;-72
2022/08/08 06:06:00;;;;;;;0.30;0.20;;;;;;;;;;4871750;29;20057;-72
2022/08/08 06:08:48;;;;;;;0.70;0.10;;;;;;;;;;4871623;29;20073;-73
2022/08/08 06:11:25;;;;;;;0.32;0.10;;;;;;;;;;4872206;29;20057;-74
2022/08/08 06:13:57;;;;;;;1.65;0.10;;;;;;;;;;4872844;29;20540;-75
2022/08/08 06:16:29;;;;;;;0.10;0.10;;;;;;;;;;4872573;29;20056;-73
2022/08/08 06:19:01;;;;;;;0.10;0.10;;;;;;;;;;4873609;29;20060;-73
2022/08/08 06:21:37;;;;;;;0.05;0.05;;;;;;;;;;4871880;29;20819;-73
2022/08/08 06:24:25;;;;;;;0.00;0.00;;;;;;;;;;4871462;29;20060;-73
2022/08/08 06:27:10;;;;;;;0.08;0.03;;;;;;;;;;4871929;29;20060;-73
2022/08/08 06:29:55;;;;;;;0.08;0.08;;;;;;;;;;4872195;29;20061;-73
2022/08/08 06:32:58;;;;;;;0.03;0.00;;;;;;;;;;4873383;29;20045;-71
2022/08/08 06:35:32;;;;;;;0.10;0.10;;;;;;;;;;4871454;29;20405;-72
2022/08/08 06:38:26;;;;;;;0.00;0.00;;;;;;;;;;4871896;29;20421;-73
2022/08/08 06:41:04;;;;;;;0.00;0.00;;;;;;;;;;4871829;29;20065;-73
2022/08/08 06:43:36;;;;;;;0.00;0.00;;;;;;;;;;4871561;29;20060;-74
2022/08/08 06:46:16;;;;;;;0.10;0.00;;;;;;;;;;4870985;29;20543;-73
2022/08/08 06:48:55;;;;;;;0.10;0.00;;;;;;;;;;4871700;29;20057;-72
2022/08/08 06:51:27;;;;;;;0.50;0.00;;;;;;;;;;4872374;29;20416;-73
2022/08/08 06:54:17;;;;;;;0.00;0.00;;;;;;;;;;4871571;29;20064;-74
2022/08/08 06:56:50;;;;;;;0.00;0.00;;;;;;;;;;4871792;29;20053;-73
2022/08/08 06:59:22;;;;;;;0.00;0.00;;;;;;;;;;4871934;29;20061;-72
2022/08/08 07:02:04;;;;;;;0.05;0.05;;;;;;;;;;4871105;29;20057;-74
2022/08/08 07:05:06;;;;;;;0.20;0.05;;;;;;;;;;4871563;29;20057;-73
2022/08/08 07:08:00;;;;;;;1.50;0.00;;;;;;;;;;4871836;29;20063;-74
2022/08/08 07:10:37;;;;;;;0.70;0.10;;;;;;;;;;4871601;29;20060;-73
2022/08/08 07:13:18;;;;;;;0.10;0.10;;;;;;;;;;4872808;29;20041;-74
2022/08/08 07:16:10;;;;;;;0.10;0.10;;;;;;;;;;4871597;29;20143;-72
2022/08/08 07:19:10;;;;;;;1.25;0.43;;;;;;;;;;4874614;29;20060;-73
2022/08/08 07:21:48;;;;;;;0.52;0.10;;;;;;;;;;4857798;29;20061;-73
2022/08/08 07:24:29;;;;;;;0.20;0.10;;;;;;;;;;4874671;29;20057;-73
2022/08/08 07:27:05;;;;;;;0.70;0.13;;;;;;;;;;4874810;29;20068;-73
2022/08/08 07:29:47;;;;;;;0.80;0.10;;;;;;;;;;4875209;29;20057;-73
2022/08/08 07:32:35;;;;;;;1.23;0.28;;;;;;;;;;4874715;29;20061;-73
2022/08/08 07:35:08;;;;;;;1.40;0.15;;;;;;;;;;4874792;29;20061;-73
2022/08/08 07:37:49;;;;;;;1.13;0.20;;;;;;;;;;4874019;29;20064;-72
2022/08/08 07:40:47;;;;;;;0.10;0.10;;;;;;;;;;4873825;29;20059;-73
2022/08/08 07:43:23;;;;;;;2.70;0.50;;;;;;;;;;4874615;29;20509;-73
2022/08/08 07:46:10;;;;;;;;;;;;;;;;;;4874342;29;20072;-74
2022/08/08 07:49:06;;;;;;;1.13;0.20;;;;;;;;;;4874307;29;19923;-74
2022/08/08 07:51:36;;;;;;;1.55;0.13;;;;;;;;;;4873768;29;20057;-73
2022/08/08 07:54:40;;;;;;;2.58;0.13;;;;;;;;;;4874055;29;20061;-73
2022/08/08 07:57:46;;;;;;;2.08;0.52;;;;;;;;;;4873253;29;20049;-72
2022/08/08 08:00:23;;;;;;;2.80;0.47;;;;;;;;;;4874811;29;20053;-73
2022/08/08 08:03:09;;;;;;;1.48;0.20;;;;;;;;;;4873574;29;20049;-73
2022/08/08 08:05:58;;;;;;;0.85;0.15;;;;;;;;;;4875164;29;20061;-72
2022/08/08 08:08:39;;;;;;;1.95;0.28;;;;;;;;;;4874405;29;20064;-73
2022/08/08 08:11:23;;;;;;;1.95;0.30;;;;;;;;;;4874148;29;20072;-73
2022/08/08 08:14:27;;;;;;;2.70;0.30;;;;;;;;;;4873936;29;20053;-73
2022/08/08 08:16:58;;;;;;;1.38;0.35;;;;;;;;;;4873644;29;20505;-73
2022/08/08 08:19:32;;;;;;;0.80;0.30;;;;;;;;;;4873378;29;20416;-74
2022/08/08 08:22:17;;;;;;;4.88;0.38;;;;;;;;;;4873733;29;20053;-74
2022/08/08 08:25:05;;;;;;;2.70;0.70;;;;;;;;;;4874051;29;20053;-73
2022/08/08 08:27:39;;;;;;;3.03;0.40;;;;;;;;;;4873127;29;20555;-73
2022/08/08 08:30:15;;;;;;;5.57;0.98;;;;;;;;;;4872615;29;20061;-73
2022/08/08 08:32:46;;;;;;;1.77;0.60;;;;;;;;;;4873864;29;20061;-73
2022/08/08 08:35:23;;;;;;;2.15;0.50;;;;;;;;;;4873311;29;20413;-72
2022/08/08 08:38:13;;;;;;;4.80;0.75;;;;;;;;;;4874616;29;20060;-74
2022/08/08 08:40:55;;;;;;;2.72;0.55;;;;;;;;;;4859395;29;20416;-73
2022/08/08 08:43:27;;;;;;;3.70;0.57;;;;;;;;;;4872974;29;20428;-73
2022/08/08 08:46:00;;;;;;;2.28;0.45;;;;;;;;;;4872677;29;20057;-73
2022/08/08 08:48:34;;;;;;;5.88;0.85;;;;;;;;;;4873901;29;20073;-73
2022/08/08 08:51:17;;;;;;;2.47;0.60;;;;;;;;;;4872358;29;20053;-73
2022/08/08 08:53:52;;;;;;;5.60;0.80;;;;;;;;;;4872654;29;20429;-73
2022/08/08 08:56:37;;;;;;;2.50;0.40;;;;;;;;;;4873658;29;20516;-73
2022/08/08 08:59:16;;;;;;;5.50;0.50;;;;;;;;;;4872996;29;20061;-73
2022/08/08 09:02:15;;;;;;;1.98;0.50;;;;;;;;;;4861037;29;20083;-74
2022/08/08 09:04:48;;;;;;;2.08;0.40;;;;;;;;;;4873440;29;20057;-74
2022/08/08 09:07:23;;;;;;;2.17;0.40;;;;;;;;;;4872508;29;20049;-74
2022/08/08 09:10:15;;;;;;;2.70;0.40;;;;;;;;;;4874252;29;20063;-72
2022/08/08 09:12:49;;;;;;;3.90;0.47;;;;;;;;;;4872666;29;20057;-73
2022/08/08 09:15:20;;;;;;;1.58;0.40;;;;;;;;;;4874304;29;20037;-74
2022/08/08 09:18:16;;;;;;;1.88;0.40;;;;;;;;;;4872410;29;20500;-75
2022/08/08 09:20:50;;;;;;;2.10;0.38;;;;;;;;;;4873097;29;20061;-75
2022/08/08 09:23:41;;;;;;;3.25;0.40;;;;;;;;;;4872568;29;20413;-74
2022/08/08 09:26:25;;;;;;;2.30;0.38;;;;;;;;;;4872401;29;20053;-74
2022/08/08 09:29:01;;;;;;;0.75;0.30;;;;;;;;;;4872032;29;20065;-74
2022/08/08 09:31:54;;;;;;;2.60;0.40;;;;;;;;;;4872223;29;20422;-74
2022/08/08 09:34:35;;;;;;;3.67;0.68;;;;;;;;;;4872230;29;20060;-74
2022/08/08 09:37:18;;;;;;;1.63;0.60;;;;;;;;;;4872666;29;20056;-74
2022/08/08 09:40:12;;;;;;;1.20;0.38;;;;;;;;;;4871947;29;20077;-73
2022/08/08 09:43:10;;;;;;;1.80;0.45;;;;;;;;;;4873548;29;20049;-74
2022/08/08 09:46:02;;;;;;;5.22;0.80;;;;;;;;;;4868993;29;20067;-74
2022/08/08 09:48:44;;;;;;;4.55;0.55;;;;;;;;;;4873304;29;20057;-80
2022/08/08 09:51:22;;;;;;;3.72;0.40;;;;;;;;;;4872042;29;20052;-73
2022/08/08 09:53:56;;;;;;;3.28;0.75;;;;;;;;;;4873433;29;20420;-75
2022/08/08 09:56:53;;;;;;;4.93;0.55;;;;;;;;;;4873483;29;20045;-74
2022/08/08 09:59:28;;;;;;;;;;;;;;;;;;4873594;29;20394;-72
2022/08/08 10:02:23;;;;;;;3.58;0.80;;;;;;;;;;4873434;29;19927;-73
2022/08/08 10:05:15;;;;;;;3.45;0.63;;;;;;;;;;4873578;29;20654;-75
2022/08/08 10:07:52;;;;;;;4.20;0.88;;;;;;;;;;4873327;29;20045;-75
2022/08/08 10:10:38;;;;;;;3.03;0.60;;;;;;;;;;4873856;29;20057;-74
2022/08/08 10:13:21;;;;;;;3.63;0.65;;;;;;;;;;4873480;29;20405;-77
2022/08/08 10:16:03;;;;;;;4.43;0.77;;;;;;;;;;4873289;29;20049;-74
2022/08/08 10:18:38;;;;;;;6.40;0.80;;;;;;;;;;4873029;29;20053;-74
2022/08/08 10:21:15;;;;;;;3.42;0.70;;;;;;;;;;4873546;29;20049;-73
2022/08/08 10:24:02;;;;;;;3.78;0.70;;;;;;;;;;4873147;29;20049;-73
2022/08/08 10:27:00;;;;;;;6.10;1.40;;;;;;;;;;4872735;29;20052;-72
2022/08/08 10:29:49;;;;;;;2.50;0.52;;;;;;;;;;4872789;29;20048;-75
2022/08/08 10:32:35;;;;;;;4.60;0.60;;;;;;;;;;4870740;29;20056;-76
2022/08/08 10:35:14;;;;;;;5.00;2.15;;;;;;;;;;4872799;29;20040;-75
2022/08/08 10:38:08;;;;;;;7.50;0.85;;;;;;;;;;4873067;29;20064;-72
2022/08/08 10:40:44;;;;;;;3.50;0.60;;;;;;;;;;4872789;29;20057;-72
2022/08/08 10:43:14;;;;;;;3.97;0.77;;;;;;;;;;4872870;29;20061;-73
2022/08/08 10:45:46;;;;;;;5.03;0.80;;;;;;;;;;4871581;29;20064;-72
2022/08/08 10:48:32;;;;;;;3.10;1.00;;;;;;;;;;4873110;29;20060;-73
2022/08/08 10:51:34;;;;;;;3.47;0.68;;;;;;;;;;4874017;29;20068;-72
2022/08/08 10:54:20;;;;;;;3.58;0.60;;;;;;;;;;4876617;29;20056;-73
2022/08/08 10:56:58;;;;;;;3.25;0.73;;;;;;;;;;4876284;29;20540;-73
2022/08/08 10:59:32;;;;;;;5.38;0.65;;;;;;;;;;4876174;29;20068;-74
2022/08/08 11:02:09;;;;;;;2.40;0.47;;;;;;;;;;4876355;29;20056;-73
2022/08/08 11:04:46;;;;;;;6.22;0.88;;;;;;;;;;4876449;29;20056;-72
2022/08/08 11:07:33;;;;;;;5.90;0.73;;;;;;;;;;4876638;29;20056;-71
2022/08/08 11:10:24;;;;;;;5.13;0.90;;;;;;;;;;4875836;29;20453;-74
2022/08/08 11:13:01;;;;;;;8.13;0.70;;;;;;;;;;4874385;29;20052;-74
2022/08/08 11:15:54;;;;;;;3.75;0.50;;;;;;;;;;4875064;29;20143;-74
2022/08/08 11:18:40;;;;;;;4.93;0.60;;;;;;;;;;4875552;29;20072;-71
2022/08/08 11:21:14;;;;;;;9.43;0.90;;;;;;;;;;4876288;29;20053;-74
2022/08/08 11:23:48;;;;;;;6.68;0.77;;;;;;;;;;4876061;29;20053;-77
2022/08/08 11:26:34;;;;;;;4.18;0.60;;;;;;;;;;4876318;29;20049;-74
2022/08/08 11:29:26;;;;;;;5.82;0.90;;;;;;;;;;4874026;29;20056;-72
2022/08/08 11:32:20;;;;;;;3.30;0.70;;;;;;;;;;4875525;29;20064;-72
2022/08/08 11:35:04;;;;;;;5.97;0.80;;;;;;;;;;4875453;29;20045;-72
2022/08/08 11:37:52;;;;;;;2.65;0.70;;;;;;;;;;4875875;29;20041;-74
2022/08/08 11:40:42;;;;;;;3.85;0.60;;;;;;;;;;4875838;29;20068;-73
2022/08/08 11:43:27;;;;;;;3.00;0.77;;;;;;;;;;4875853;29;20053;-72
2022/08/08 11:46:10;;;;;;;3.05;0.70;;;;;;;;;;4875561;29;20056;-72
2022/08/08 11:48:47;;;;;;;5.93;0.93;;;;;;;;;;4875592;29;20401;-74
2022/08/08 11:51:20;;;;;;;3.28;0.60;;;;;;;;;;4873618;29;20650;-73
2022/08/08 11:54:08;;;;;;;5.43;0.63;;;;;;;;;;4875465;29;20048;-72
2022/08/08 11:57:13;;;;;;;1.80;0.50;;;;;;;;;;4875631;29;20064;-72
2022/08/08 11:59:54;;;;;;;1.90;0.50;;;;;;;;;;4875646;29;20076;-73
2022/08/08 12:02:53;;;;;;;2.67;0.52;;;;;;;;;;4873867;29;20425;-72
2022/08/08 12:05:35;;;;;;;3.15;0.47;;;;;;;;;;4874362;29;20119;-73
2022/08/08 12:08:06;;;;;;;4.03;0.60;;;;;;;;;;4875583;29;20073;-73
2022/08/08 12:10:50;;;;;;;0.45;0.40;;;;;;;;;;4874820;29;20056;-78
2022/08/08 12:13:25;;;;;;;1.45;0.38;;;;;;;;;;4874746;29;20072;-83
2022/08/08 12:16:17;;;;;;;0.77;0.40;;;;;;;;;;4874667;29;20055;-72
2022/08/08 12:18:52;;;;;;;0.90;0.30;;;;;;;;;;4874980;29;20063;-72
2022/08/08 12:21:33;;;;;;;0.82;0.17;;;;;;;;;;4874972;29;20156;-72
2022/08/08 12:24:23;;;;;;;1.30;0.40;;;;;;;;;;4875232;29;20049;-73
2022/08/08 12:26:56;;;;;;;1.75;0.30;;;;;;;;;;4874783;29;20056;-72
2022/08/08 12:29:32;;;;;;;0.98;0.30;;;;;;;;;;4872912;29;20065;-72
2022/08/08 12:32:15;;;;;;;2.20;0.25;;;;;;;;;;4875053;29;20049;-71
2022/08/08 12:35:02;;;;;;;2.33;0.40;;;;;;;;;;4874868;29;20049;-73
2022/08/08 12:38:12;;;;;;;1.50;0.60;;;;;;;;;;4874359;29;20064;-72
2022/08/08 12:40:53;;;;;;;2.15;0.60;;;;;;;;;;4872027;29;20064;-73
2022/08/08 12:43:32;;;;;;;2.72;0.40;;;;;;;;;;4873707;29;20049;-78
2022/08/08 12:46:23;;;;;;;2.78;0.57;;;;;;;;;;4873220;29;20057;-73
2022/08/08 12:49:01;;;;;;;3.75;0.60;;;;;;;;;;4871877;29;20064;-72
2022/08/08 12:51:52;;;;;;;1.83;0.40;;;;;;;;;;4874472;29;20501;-73
2022/08/08 12:54:34;;;;;;;1.08;0.50;;;;;;;;;;4874533;29;20056;-72
2022/08/08 12:57:20;;;;;;;4.20;0.35;;;;;;;;;;4874671;29;20048;-74
2022/08/08 12:59:52;;;;;;;3.33;0.57;;;;;;;;;;4875269;29;20136;-72
2022/08/08 13:02:36;;;;;;;2.55;0.70;;;;;;;;;;4874012;29;20386;-73
2022/08/08 13:05:23;;;;;;;1.92;0.75;;;;;;;;;;4873719;29;20049;-72
2022/08/08 13:08:23;;;;;;;4.47;0.52;;;;;;;;;;4873593;29;20060;-73
2022/08/08 13:11:07;;;;;;;3.83;0.60;;;;;;;;;;4873588;29;20072;-77
2022/08/08 13:13:37;;;;;;;6.00;0.60;;;;;;;;;;4873997;29;20045;-74
2022/08/08 13:16:21;;;;;;;5.25;0.73;;;;;;;;;;4874480;29;20076;-74
2022/08/08 13:18:57;;;;;;;4.55;0.47;;;;;;;;;;4874023;29;20054;-74
2022/08/08 13:21:46;;;;;;;3.60;0.47;;;;;;;;;;4874050;29;20049;-73
2022/08/08 13:24:31;;;;;;;0.52;0.30;;;;;;;;;;4873778;29;20052;-74
2022/08/08 13:27:15;;;;;;;2.63;0.20;;;;;;;;;;4873924;29;20060;-73
2022/08/08 13:29:59;;;;;;;1.35;0.60;;;;;;;;;;4874512;29;20048;-73
2022/08/08 13:32:35;;;;;;;1.73;0.30;;;;;;;;;;4872754;29;20061;-73
2022/08/08 13:35:12;;;;;;;0.95;0.30;;;;;;;;;;4873611;29;20057;-73
2022/08/08 13:38:02;;;;;;;1.85;0.43;;;;;;;;;;4872256;29;20060;-73
2022/08/08 13:40:40;;;;;;;;;;;;;;;;;;4874365;29;20064;-73
2022/08/08 13:43:16;;;;;;;2.42;0.40;;;;;;;;;;4873724;29;20387;-73
2022/08/08 13:45:48;;;;;;;1.60;0.32;;;;;;;;;;4874237;29;20052;-72
2022/08/08 13:48:18;;;;;;;4.13;0.70;;;;;;;;;;4872714;29;20064;-74
2022/08/08 13:50:53;;;;;;;1.73;0.50;;;;;;;;;;4873628;29;20067;-72
2022/08/08 13:53:54;;;;;;;2.65;0.55;;;;;;;;;;4873339;29;20512;-72
2022/08/08 13:56:36;;;;;;;3.25;0.35;;;;;;;;;;4873379;29;20052;-73
2022/08/08 13:59:31;;;;;;;2.92;0.40;;;;;;;;;;4873442;29;20064;-74
2022/08/08 14:02:02;;;;;;;5.35;0.60;;;;;;;;;;4873608;29;20072;-72
2022/08/08 14:04:38;;;;;;;2.90;0.57;;;;;;;;;;4874111;29;20064;-73
2022/08/08 14:07:23;;;;;;;2.85;0.50;;;;;;;;;;4871204;29;20061;-73
2022/08/08 14:10:06;;;;;;;4.85;0.52;;;;;;;;;;4872314;29;20064;-74
2022/08/08 14:12:42;;;;;;;3.60;0.45;;;;;;;;;;4873346;29;20053;-73
2022/08/08 14:15:27;;;;;;;2.58;0.65;;;;;;;;;;4873413;29;20056;-73
2022/08/08 14:18:07;;;;;;;;;;;;;;;;;;4873474;29;20044;-75
2022/08/08 14:21:04;;;;;;;3.55;0.52;;;;;;;;;;4872555;29;19928;-72
2022/08/08 14:23:44;;;;;;;3.30;0.80;;;;;;;;;;4873080;29;20053;-72
2022/08/08 14:26:44;;;;;;;3.80;0.52;;;;;;;;;;4872713;29;20049;-73
2022/08/08 14:29:20;;;;;;;9.75;1.73;;;;;;;;;;4872919;29;20049;-73
2022/08/08 14:32:00;;;;;;;4.05;0.50;;;;;;;;;;4872825;29;20072;-73
2022/08/08 14:34:50;;;;;;;3.25;0.55;;;;;;;;;;4872746;29;20068;-73
2022/08/08 14:37:22;;;;;;;6.03;1.08;;;;;;;;;;4872859;29;20057;-73
2022/08/08 14:40:18;;;;;;;17.48;1.35;;;;;;;;;;4873651;29;20061;-74
2022/08/08 14:42:53;;;;;;;5.03;0.65;;;;;;;;;;4872931;29;20056;-73
2022/08/08 14:45:29;;;;;;;2.72;0.60;;;;;;;;;;4872841;29;20045;-75
2022/08/08 14:48:19;;;;;;;5.50;0.90;;;;;;;;;;4873061;29;20053;-75
2022/08/08 14:51:06;;;;;;;5.47;0.70;;;;;;;;;;4873084;29;20052;-73
2022/08/08 14:53:46;;;;;;;5.03;0.60;;;;;;;;;;4872873;29;20061;-77
2022/08/08 14:56:23;;;;;;;3.88;0.60;;;;;;;;;;4873110;29;20071;-76
2022/08/08 14:58:54;;;;;;;4.90;0.77;;;;;;;;;;4872866;29;20420;-73
2022/08/08 15:01:33;;;;;;;1.60;0.43;;;;;;;;;;4872994;29;20803;-73
2022/08/08 15:04:11;;;;;;;7.85;0.80;;;;;;;;;;4873176;29;20060;-73
2022/08/08 15:06:41;;;;;;;6.00;0.77;;;;;;;;;;4872636;29;20501;-76
2022/08/08 15:09:13;;;;;;;8.07;0.70;;;;;;;;;;4872512;29;20056;-73
2022/08/08 15:11:45;;;;;;;3.95;0.60;;;;;;;;;;4872481;29;20060;-72
2022/08/08 15:14:21;;;;;;;8.02;1.13;;;;;;;;;;4873189;29;20060;-74
2022/08/08 15:16:54;;;;;;;3.45;0.70;;;;;;;;;;4872952;29;20041;-74
2022/08/08 15:19:24;;;;;;;5.35;0.80;;;;;;;;;;4872401;29;20064;-73
2022/08/08 15:21:56;;;;;;;4.38;0.73;;;;;;;;;;4872796;29;20057;-74
2022/08/08 15:24:26;;;;;;;2.47;0.80;;;;;;;;;;4872196;29;20057;-73
2022/08/08 15:26:59;;;;;;;2.03;0.70;;;;;;;;;;4872589;29;20782;-74
2022/08/08 15:29:50;;;;;;;5.97;1.00;;;;;;;;;;4872260;29;20054;-75
2022/08/08 15:32:22;;;;;;;3.58;1.00;;;;;;;;;;4872582;29;20425;-76
2022/08/08 15:34:58;;;;;;;4.82;0.73;;;;;;;;;;4872387;29;20084;-74
2022/08/08 15:37:32;;;;;;;2.40;0.60;;;;;;;;;;4872182;29;20390;-74
2022/08/08 15:40:04;;;;;;;9.75;1.33;;;;;;;;;;4875434;29;20060;-73
2022/08/08 15:42:39;;;;;;;7.20;1.30;;;;;;;;;;4875749;29;20045;-73
2022/08/08 15:45:09;;;;;;;6.47;0.80;;;;;;;;;;4875802;29;20045;-72
2022/08/08 15:47:39;;;;;;;6.60;1.30;;;;;;;;;;4874487;29;20057;-73
2022/08/08 15:50:59;;;;;;;7.07;1.38;;;;;;;;;;4875775;29;20049;-73
2022/08/08 15:53:21;;;;;;;4.93;1.20;;;;;;;;;;4875426;29;20057;-73
2022/08/08 15:55:51;;;;;;;5.80;1.13;;;;;;;;;;4875901;29;20057;-73
2022/08/08 15:58:21;;;;;;;5.40;0.90;;;;;;;;;;4878354;29;20049;-74
2022/08/08 16:00:59;;;;;;;5.95;0.90;;;;;;;;;;4875363;29;20547;-74
2022/08/08 16:03:32;;;;;;;3.67;0.88;;;;;;;;;;4874993;29;20060;-77
2022/08/08 16:06:02;;;;;;;8.63;0.98;;;;;;;;;;4875346;29;20049;-73
2022/08/08 16:08:32;;;;;;;4.03;0.98;;;;;;;;;;4875241;29;20049;-74
2022/08/08 16:11:02;;;;;;;6.00;0.73;;;;;;;;;;4875039;29;20064;-74
2022/08/08 16:13:52;;;;;;;5.78;0.68;;;;;;;;;;4874674;29;20057;-71
2022/08/08 16:16:28;;;;;;;5.40;0.75;;;;;;;;;;4874956;29;20401;-74
2022/08/08 16:18:58;;;;;;;4.72;0.77;;;;;;;;;;4875214;29;20079;-73
2022/08/08 16:21:30;;;;;;;4.25;0.70;;;;;;;;;;4875055;29;20489;-77
2022/08/08 16:24:04;;;;;;;6.53;0.80;;;;;;;;;;4875672;29;20049;-73
2022/08/08 16:26:39;;;;;;;2.95;0.80;;;;;;;;;;4876007;29;20041;-75
2022/08/08 16:29:13;;;;;;;2.38;0.82;;;;;;;;;;4874150;29;20060;-74
2022/08/08 16:31:45;;;;;;;2.25;0.63;;;;;;;;;;4874504;29;20056;-72
2022/08/08 16:34:20;;;;;;;6.85;0.98;;;;;;;;;;4874685;29;20428;-71
2022/08/08 16:36:52;;;;;;;6.25;1.00;;;;;;;;;;4874733;29;20428;-72